Time;durP1;ratioP1;P1;durP2;ratioP2;P2;SDS_P1;SDS_P2;PMS_P1;PMS_P2;Temp;Humidity;BMP_temperature;BMP_pressure;BME280_temperature;BME280_humidity;BME280_pressure;Samples;Min_cycle;Max_cycle;Signal;HPM_P1;HPM_P2
2023/08/28 00:01:42;;;;;;;3.70;2.60;;;15.60;89.30;;;;;;5013080;28;20018;-90
2023/08/28 00:04:07;;;;;;;3.38;2.50;;;15.50;89.30;;;;;;4983579;28;20388;-90
2023/08/28 00:06:33;;;;;;;3.22;2.60;;;15.60;89.40;;;;;;4989208;28;20075;-91
2023/08/28 00:08:59;;;;;;;3.70;3.28;;;15.60;89.30;;;;;;5003420;28;20421;-89
2023/08/28 00:11:24;;;;;;;4.75;3.70;;;15.50;89.40;;;;;;5006473;28;20102;-88
2023/08/28 00:13:50;;;;;;;4.05;3.53;;;15.50;89.50;;;;;;4989828;28;20019;-89
2023/08/28 00:16:15;;;;;;;4.20;3.63;;;15.50;89.70;;;;;;5006870;28;20029;-89
2023/08/28 00:18:41;;;;;;;5.43;3.78;;;15.40;89.90;;;;;;4989970;28;20437;-86
2023/08/28 00:21:07;;;;;;;4.43;3.75;;;15.40;90.00;;;;;;4991766;28;20027;-86
2023/08/28 00:23:33;;;;;;;4.53;3.42;;;15.50;90.10;;;;;;4986451;28;20032;-84
2023/08/28 00:25:59;;;;;;;4.82;3.70;;;15.40;90.10;;;;;;5017850;28;20579;-86
2023/08/28 00:28:25;;;;;;;3.83;3.25;;;15.40;90.20;;;;;;5010299;28;20085;-85
2023/08/28 00:30:51;;;;;;;3.78;3.15;;;15.40;90.30;;;;;;4992832;28;20393;-87
2023/08/28 00:33:16;;;;;;;6.10;3.55;;;15.40;90.30;;;;;;4994481;28;20066;-88
2023/08/28 00:35:42;;;;;;;5.07;3.33;;;15.40;90.40;;;;;;4993379;28;20026;-87
2023/08/28 00:38:09;;;;;;;4.47;3.70;;;15.40;90.40;;;;;;5004251;28;20022;-86
2023/08/28 00:40:39;;;;;;;7.60;4.25;;;15.40;90.40;;;;;;5010974;28;20076;-86
2023/08/28 00:43:04;;;;;;;5.28;3.88;;;15.40;90.60;;;;;;5004243;28;20110;-86
2023/08/28 00:45:30;;;;;;;5.63;3.70;;;15.40;90.40;;;;;;4996087;28;20596;-85
2023/08/28 00:47:56;;;;;;;4.70;3.50;;;15.40;90.30;;;;;;5012669;28;20030;-84
2023/08/28 00:50:26;;;;;;;4.97;3.38;;;15.40;90.40;;;;;;4988911;28;20030;-91
2023/08/28 00:52:52;;;;;;;5.07;3.60;;;15.30;90.40;;;;;;5009797;28;20513;-92
2023/08/28 00:55:19;;;;;;;4.72;3.88;;;15.30;90.50;;;;;;5011681;28;20040;-91
2023/08/28 00:57:45;;;;;;;4.25;3.72;;;15.30;90.60;;;;;;5010921;28;20445;-91
2023/08/28 01:00:12;;;;;;;3.90;3.35;;;15.20;90.50;;;;;;5011883;28;20026;-91
2023/08/28 01:02:41;;;;;;;4.15;3.38;;;15.30;90.50;;;;;;5013708;28;20030;-91
2023/08/28 01:05:08;;;;;;;3.72;3.28;;;15.30;90.50;;;;;;5010036;28;20113;-86
2023/08/28 01:11:44;;;;;;;5.22;3.15;;;15.20;90.50;;;;;;4996902;28;20072;-93
2023/08/28 01:24:20;;;;;;;4.63;3.90;;;15.00;91.10;;;;;;5240494;23;20121;-85
2023/08/28 01:26:46;;;;;;;4.93;3.90;;;15.00;91.10;;;;;;5068337;28;20020;-86
2023/08/28 01:29:12;;;;;;;7.55;5.05;;;14.90;91.00;;;;;;5069227;28;20017;-91
2023/08/28 01:31:37;;;;;;;5.57;4.18;;;14.90;91.00;;;;;;5074943;28;20028;-91
2023/08/28 01:34:10;;;;;;;4.03;3.17;;;14.90;91.00;;;;;;5053273;28;20044;-92
2023/08/28 01:36:45;;;;;;;4.85;3.55;;;15.00;91.00;;;;;;5044558;28;20364;-88
2023/08/28 01:39:17;;;;;;;4.03;3.38;;;14.90;91.00;;;;;;5064936;28;20089;-87
2023/08/28 01:41:45;;;;;;;4.20;3.42;;;14.90;91.00;;;;;;5072312;28;20056;-88
2023/08/28 01:44:11;;;;;;;3.72;3.05;;;14.90;91.00;;;;;;5070900;28;20032;-89
2023/08/28 01:46:38;;;;;;;4.93;3.10;;;14.90;91.10;;;;;;5060855;28;20113;-88
2023/08/28 01:49:05;;;;;;;4.85;3.38;;;14.90;91.10;;;;;;5055893;28;20021;-89
2023/08/28 01:51:30;;;;;;;3.72;3.33;;;14.90;91.00;;;;;;5063605;28;20025;-88
2023/08/28 01:53:56;;;;;;;3.95;3.38;;;14.90;91.10;;;;;;5054080;28;20051;-88
2023/08/28 01:56:23;;;;;;;3.88;3.00;;;14.90;91.10;;;;;;5071811;28;20031;-90
2023/08/28 01:58:58;;;;;;;3.47;3.10;;;14.90;91.10;;;;;;5069028;28;20137;-89
2023/08/28 02:01:25;;;;;;;4.53;3.20;;;14.90;91.10;;;;;;5052445;28;20435;-90
2023/08/28 02:03:52;;;;;;;4.05;2.80;;;14.90;91.10;;;;;;5053589;28;20017;-90
2023/08/28 02:06:18;;;;;;;4.38;3.40;;;14.90;91.00;;;;;;5072881;28;20494;-90
2023/08/28 02:08:44;;;;;;;6.05;3.20;;;14.90;91.00;;;;;;5058628;28;20053;-90
2023/08/28 02:11:10;;;;;;;5.35;3.17;;;14.90;91.00;;;;;;5042059;28;20021;-91
2023/08/28 02:13:36;;;;;;;3.67;2.92;;;14.90;91.00;;;;;;5052439;28;20096;-90
2023/08/28 02:16:02;;;;;;;4.78;3.05;;;14.90;91.00;;;;;;5053105;28;20035;-91
2023/08/28 02:18:28;;;;;;;6.22;4.32;;;14.90;91.00;;;;;;5054072;28;20025;-91
2023/08/28 02:20:54;;;;;;;4.93;3.63;;;14.90;90.90;;;;;;5060165;28;20017;-91
2023/08/28 02:23:20;;;;;;;4.30;3.65;;;14.90;91.00;;;;;;5053906;28;20104;-91
2023/08/28 02:25:47;;;;;;;3.95;3.45;;;14.90;90.90;;;;;;5064898;28;20017;-88
2023/08/28 02:28:13;;;;;;;6.03;3.50;;;14.80;90.90;;;;;;5074753;28;20051;-89
2023/08/28 02:30:39;;;;;;;3.90;3.50;;;14.80;91.00;;;;;;5081881;28;20025;-88
2023/08/28 02:33:05;;;;;;;4.45;3.00;;;14.70;91.00;;;;;;5073336;28;20065;-86
2023/08/28 02:35:31;;;;;;;4.00;3.60;;;14.70;91.00;;;;;;5059285;28;20028;-85
2023/08/28 02:37:56;;;;;;;4.00;3.58;;;14.70;91.00;;;;;;5061791;28;20075;-87
2023/08/28 02:40:22;;;;;;;4.05;3.65;;;14.70;91.00;;;;;;5066876;28;20033;-87
2023/08/28 02:42:47;;;;;;;4.68;3.17;;;14.70;91.00;;;;;;5070565;28;20039;-87
2023/08/28 02:45:13;;;;;;;4.47;3.10;;;14.70;91.00;;;;;;5051022;28;20024;-86
2023/08/28 02:47:39;;;;;;;3.25;2.92;;;14.60;90.90;;;;;;5049389;28;20059;-86
2023/08/28 02:50:05;;;;;;;4.30;3.60;;;14.60;91.00;;;;;;5054792;28;20467;-87
2023/08/28 02:52:30;;;;;;;4.00;2.92;;;14.60;91.00;;;;;;5070328;28;20454;-87
2023/08/28 02:54:56;;;;;;;4.90;3.38;;;14.60;91.00;;;;;;5054905;28;20112;-86
2023/08/28 02:57:22;;;;;;;4.10;3.17;;;14.60;90.90;;;;;;5050355;28;20024;-87
2023/08/28 02:59:47;;;;;;;4.80;3.70;;;14.60;90.90;;;;;;5035607;28;20065;-88
2023/08/28 03:02:13;;;;;;;3.25;2.95;;;14.60;90.80;;;;;;5061790;28;20021;-87
2023/08/28 03:04:39;;;;;;;6.20;3.53;;;14.60;90.80;;;;;;5057095;28;20025;-88
2023/08/28 03:07:04;;;;;;;5.10;3.67;;;14.60;90.70;;;;;;5057374;28;20033;-86
2023/08/28 03:09:32;;;;;;;4.15;3.65;;;14.60;90.70;;;;;;5050648;28;20032;-87
2023/08/28 03:11:57;;;;;;;4.75;3.80;;;14.50;90.70;;;;;;5046903;28;20065;-87
2023/08/28 03:14:23;;;;;;;6.75;4.80;;;14.50;90.80;;;;;;5036201;28;20415;-87
2023/08/28 03:16:48;;;;;;;6.25;4.28;;;14.50;90.70;;;;;;5046331;28;20033;-86
2023/08/28 03:19:14;;;;;;;4.97;4.15;;;14.50;90.80;;;;;;5044481;28;20028;-87
2023/08/28 03:21:40;;;;;;;4.45;3.30;;;14.50;90.90;;;;;;5054457;28;20472;-85
2023/08/28 03:24:06;;;;;;;6.95;4.53;;;14.40;90.90;;;;;;5057285;28;20029;-86
2023/08/28 03:26:33;;;;;;;6.03;4.13;;;14.50;91.00;;;;;;5064741;28;20429;-86
2023/08/28 03:28:59;;;;;;;4.28;3.88;;;14.40;91.10;;;;;;5049701;28;20013;-87
2023/08/28 03:31:26;;;;;;;3.97;3.58;;;14.40;91.10;;;;;;5046344;28;20044;-87
2023/08/28 03:33:51;;;;;;;4.15;3.60;;;14.50;91.10;;;;;;5045640;28;20104;-86
2023/08/28 03:36:17;;;;;;;4.97;3.53;;;14.50;91.10;;;;;;5050406;28;20483;-86
2023/08/28 03:38:42;;;;;;;4.10;3.50;;;14.50;91.00;;;;;;5050675;28;20024;-85
2023/08/28 03:41:09;;;;;;;4.63;3.72;;;14.50;91.00;;;;;;5053140;28;20269;-85
2023/08/28 03:43:35;;;;;;;4.13;3.67;;;14.50;91.00;;;;;;5059160;28;20395;-85
2023/08/28 03:46:00;;;;;;;5.07;3.50;;;14.50;91.10;;;;;;5052608;28;20108;-87
2023/08/28 03:48:26;;;;;;;4.00;3.60;;;14.40;91.00;;;;;;5045490;28;20040;-87
2023/08/28 03:50:51;;;;;;;4.70;3.40;;;14.50;91.00;;;;;;5042469;28;20544;-87
2023/08/28 03:53:17;;;;;;;5.20;3.90;;;14.50;91.30;;;;;;5048364;28;20083;-85
2023/08/28 03:55:43;;;;;;;4.40;3.80;;;14.50;91.00;;;;;;5049331;28;20531;-85
2023/08/28 03:58:08;;;;;;;4.60;3.72;;;14.50;91.00;;;;;;5050326;28;20071;-85
2023/08/28 04:00:34;;;;;;;6.15;4.47;;;14.50;91.00;;;;;;5044439;28;20049;-85
2023/08/28 04:03:00;;;;;;;5.47;4.70;;;14.50;91.10;;;;;;5045859;28;20017;-84
2023/08/28 04:05:28;;;;;;;6.10;5.35;;;14.50;91.20;;;;;;5033620;28;20108;-84
2023/08/28 04:07:54;;;;;;;5.60;4.93;;;14.40;91.30;;;;;;5048070;28;20025;-90
2023/08/28 04:10:20;;;;;;;6.15;4.80;;;14.40;91.30;;;;;;5053608;28;20021;-89
2023/08/28 04:12:45;;;;;;;8.20;5.13;;;14.40;91.40;;;;;;5054387;28;20028;-89
2023/08/28 04:15:11;;;;;;;4.97;4.13;;;14.40;91.40;;;;;;5054323;28;20029;-89
2023/08/28 04:17:37;;;;;;;5.78;5.07;;;14.50;91.40;;;;;;5055556;28;20050;-90
2023/08/28 04:20:12;;;;;;;6.88;4.15;;;14.50;91.40;;;;;;5054290;28;20021;-90
2023/08/28 04:22:41;;;;;;;4.18;3.78;;;14.50;91.50;;;;;;5063833;28;20111;-89
2023/08/28 04:34:22;;;;;;;5.40;4.90;;;14.40;91.70;;;;;;5093503;23;20084;-89
2023/08/28 04:36:47;;;;;;;4.60;4.07;;;14.50;91.70;;;;;;5093400;28;20482;-90
2023/08/28 04:39:13;;;;;;;5.63;4.80;;;14.50;91.70;;;;;;5094648;28;20032;-90
2023/08/28 04:41:39;;;;;;;6.15;4.43;;;14.50;91.70;;;;;;5095544;28;20020;-93
2023/08/28 04:44:04;;;;;;;5.85;5.00;;;14.60;91.60;;;;;;5078550;28;20035;-90
2023/08/28 04:46:30;;;;;;;5.28;4.78;;;14.60;91.60;;;;;;5071209;28;20065;-90
2023/08/28 04:48:56;;;;;;;5.63;5.03;;;14.70;91.60;;;;;;5088441;28;20375;-90
2023/08/28 04:51:21;;;;;;;6.47;5.07;;;14.70;91.50;;;;;;5073787;28;20035;-91
2023/08/28 04:53:47;;;;;;;6.00;5.40;;;14.70;91.60;;;;;;5071220;28;21828;-91
2023/08/28 04:56:12;;;;;;;6.53;5.45;;;14.70;91.60;;;;;;5071630;28;20025;-91
2023/08/28 04:58:38;;;;;;;5.53;5.00;;;14.70;91.70;;;;;;5068773;28;20044;-91
2023/08/28 05:01:04;;;;;;;6.53;5.47;;;14.70;91.70;;;;;;5074576;28;20025;-90
2023/08/28 05:03:29;;;;;;;7.38;5.25;;;14.70;91.70;;;;;;5080529;28;20060;-90
2023/08/28 05:05:55;;;;;;;6.13;5.20;;;14.80;91.70;;;;;;5081790;28;20028;-91
2023/08/28 05:08:21;;;;;;;6.32;5.05;;;14.80;91.60;;;;;;5074244;28;20024;-91
2023/08/28 05:10:46;;;;;;;6.65;5.53;;;14.80;91.60;;;;;;5074047;28;20538;-91
2023/08/28 05:13:13;;;;;;;5.53;4.75;;;14.80;91.60;;;;;;5074145;28;20029;-91
2023/08/28 05:15:38;;;;;;;6.55;5.10;;;14.80;91.60;;;;;;5072347;28;20051;-91
2023/08/28 05:18:04;;;;;;;6.00;5.40;;;14.90;91.60;;;;;;5082774;28;20033;-90
2023/08/28 05:20:30;;;;;;;6.10;5.40;;;14.90;91.60;;;;;;5086856;28;20070;-91
2023/08/28 05:22:55;;;;;;;6.22;5.20;;;14.90;91.50;;;;;;5073848;28;20510;-90
2023/08/28 05:25:21;;;;;;;5.68;4.82;;;14.90;91.50;;;;;;5069681;28;20111;-91
2023/08/28 05:27:47;;;;;;;6.10;5.50;;;14.90;91.50;;;;;;5074703;28;20391;-91
2023/08/28 05:30:13;;;;;;;8.70;5.90;;;14.90;91.50;;;;;;5072630;28;20020;-91
2023/08/28 05:32:38;;;;;;;7.13;5.63;;;14.90;91.50;;;;;;5073724;28;20127;-89
2023/08/28 05:35:05;;;;;;;6.05;4.93;;;15.00;91.60;;;;;;5073608;28;20103;-92
2023/08/28 05:37:31;;;;;;;5.45;4.90;;;15.10;91.50;;;;;;5061940;28;20033;-90
2023/08/28 05:39:57;;;;;;;6.28;5.68;;;15.10;91.50;;;;;;5076234;28;20032;-91
2023/08/28 05:42:23;;;;;;;7.10;5.70;;;15.20;91.40;;;;;;5073135;28;20013;-90
2023/08/28 05:44:48;;;;;;;5.68;4.80;;;15.20;91.40;;;;;;5069810;28;20028;-90
2023/08/28 05:47:14;;;;;;;6.25;4.68;;;15.30;91.40;;;;;;5070063;28;20039;-92
2023/08/28 05:49:40;;;;;;;5.95;4.95;;;15.30;91.30;;;;;;5075841;28;20020;-91
2023/08/28 05:52:10;;;;;;;5.88;4.50;;;15.40;91.30;;;;;;5084598;28;20016;-91
2023/08/28 05:54:35;;;;;;;5.88;5.28;;;15.50;91.20;;;;;;5073606;28;20016;-90
2023/08/28 05:57:02;;;;;;;7.47;5.22;;;15.50;91.20;;;;;;5071330;28;20439;-88
2023/08/28 05:59:28;;;;;;;5.72;5.13;;;15.50;91.10;;;;;;5103571;28;20127;-88
2023/08/28 06:01:53;;;;;;;7.95;6.50;;;15.60;91.20;;;;;;5066653;28;20113;-89
2023/08/28 06:04:19;;;;;;;5.97;5.38;;;15.50;91.20;;;;;;5083755;28;20027;-91
2023/08/28 06:06:44;;;;;;;8.05;6.00;;;15.50;91.30;;;;;;5073342;28;20119;-91
2023/08/28 06:09:10;;;;;;;6.72;5.60;;;15.50;91.40;;;;;;5072473;28;20013;-91
2023/08/28 06:11:35;;;;;;;6.28;5.55;;;15.50;91.40;;;;;;5072464;28;20474;-92
2023/08/28 06:14:01;;;;;;;5.95;5.35;;;15.50;91.40;;;;;;5071453;28;20025;-93
2023/08/28 06:16:27;;;;;;;9.73;6.88;;;15.50;91.50;;;;;;5067648;28;21868;-93
2023/08/28 06:18:53;;;;;;;6.40;5.53;;;15.50;91.50;;;;;;5071997;28;20037;-96
2023/08/28 06:21:19;;;;;;;7.22;5.70;;;15.50;91.50;;;;;;5061356;28;20036;-94
2023/08/28 06:23:44;;;;;;;8.85;6.70;;;15.50;91.50;;;;;;5061589;28;20020;-94
2023/08/28 06:26:10;;;;;;;7.82;6.72;;;15.60;91.60;;;;;;5073239;28;20028;-93
2023/08/28 06:28:35;;;;;;;7.60;5.47;;;15.60;91.60;;;;;;5077085;28;20393;-93
2023/08/28 06:31:04;;;;;;;7.97;6.30;;;15.70;91.60;;;;;;5085002;28;20030;-92
2023/08/28 06:33:30;;;;;;;6.93;6.22;;;15.80;91.40;;;;;;5076868;28;20040;-92
2023/08/28 06:35:55;;;;;;;6.95;6.25;;;15.90;91.30;;;;;;5073137;28;20556;-93
2023/08/28 06:38:21;;;;;;;7.50;6.80;;;16.20;91.40;;;;;;5077697;28;20036;-92
2023/08/28 06:40:52;;;;;;;8.70;6.63;;;16.90;90.60;;;;;;5065072;28;20116;-92
2023/08/28 06:43:17;;;;;;;8.20;5.97;;;17.10;90.00;;;;;;5065430;28;20056;-91
2023/08/28 06:45:47;;;;;;;6.20;5.60;;;17.20;89.60;;;;;;5063831;28;20067;-91
2023/08/28 06:48:12;;;;;;;7.45;5.55;;;17.50;89.80;;;;;;5071267;28;20021;-91
2023/08/28 06:50:38;;;;;;;5.97;5.38;;;19.60;86.60;;;;;;5060557;28;20028;-91
2023/08/28 06:53:04;;;;;;;6.30;5.05;;;21.40;80.50;;;;;;5072496;28;20478;-92
2023/08/28 06:55:32;;;;;;;6.18;5.03;;;23.10;75.40;;;;;;5070320;28;20025;-93
2023/08/28 06:57:57;;;;;;;6.53;4.50;;;24.40;71.20;;;;;;5071289;28;20398;-92
2023/08/28 07:00:23;;;;;;;4.80;4.03;;;25.50;68.10;;;;;;5059597;28;20024;-91
2023/08/28 07:02:49;;;;;;;4.80;3.92;;;26.40;66.00;;;;;;5068401;28;20478;-91
2023/08/28 07:05:14;;;;;;;3.97;2.97;;;27.20;63.70;;;;;;5067687;28;20036;-91
2023/08/28 07:07:40;;;;;;;3.60;3.30;;;27.90;61.80;;;;;;5063758;28;20024;-88
2023/08/28 07:10:06;;;;;;;3.97;3.13;;;28.40;60.10;;;;;;5063256;28;20020;-92
2023/08/28 07:12:33;;;;;;;3.58;2.97;;;28.80;59.40;;;;;;5071941;28;20044;-85
2023/08/28 07:15:11;;;;;;;2.53;2.33;;;29.00;59.00;;;;;;5067915;28;20497;-89
2023/08/28 07:17:37;;;;;;;2.50;2.30;;;29.20;58.10;;;;;;5067386;28;20044;-88
2023/08/28 07:20:04;;;;;;;3.28;2.55;;;28.00;58.70;;;;;;5066048;28;20021;-88
2023/08/28 07:22:30;;;;;;;2.20;2.00;;;27.00;60.70;;;;;;5069551;28;20039;-89
2023/08/28 07:24:56;;;;;;;2.58;2.30;;;26.00;62.20;;;;;;5064716;28;20033;-88
2023/08/28 07:27:22;;;;;;;2.13;1.92;;;25.60;63.70;;;;;;5060365;28;20123;-85
2023/08/28 07:29:47;;;;;;;1.73;1.63;;;25.20;63.90;;;;;;5060879;28;20486;-87
2023/08/28 07:32:13;;;;;;;4.43;2.00;;;25.20;63.60;;;;;;5059415;28;20032;-86
2023/08/28 07:34:38;;;;;;;2.55;2.10;;;24.80;64.10;;;;;;5070671;28;20372;-90
2023/08/28 07:37:05;;;;;;;3.17;1.85;;;24.20;65.10;;;;;;5072345;28;20055;-87
2023/08/28 07:39:31;;;;;;;2.55;2.20;;;23.70;66.40;;;;;;5070245;28;20059;-88
2023/08/28 07:41:57;;;;;;;2.80;2.10;;;23.40;67.10;;;;;;5071737;28;20495;-88
2023/08/28 07:44:23;;;;;;;2.75;2.17;;;23.00;68.10;;;;;;5074930;28;20079;-87
2023/08/28 07:46:49;;;;;;;4.10;3.50;;;22.60;68.90;;;;;;5066041;28;20033;-88
2023/08/28 07:49:15;;;;;;;4.88;3.63;;;22.40;69.60;;;;;;5085167;28;20060;-86
2023/08/28 07:51:40;;;;;;;4.90;3.90;;;22.00;70.40;;;;;;5067087;28;20056;-87
2023/08/28 07:54:06;;;;;;;4.65;4.25;;;21.60;70.90;;;;;;5066390;28;20381;-87
2023/08/28 07:56:31;;;;;;;4.68;4.03;;;22.00;71.10;;;;;;5064648;28;20114;-87
2023/08/28 07:58:57;;;;;;;5.50;4.97;;;23.50;68.80;;;;;;5065476;28;20121;-87
2023/08/28 08:01:24;;;;;;;5.32;4.50;;;25.10;64.70;;;;;;5065794;28;20035;-86
2023/08/28 08:03:50;;;;;;;5.10;3.97;;;25.70;62.10;;;;;;5067237;28;20032;-85
2023/08/28 08:06:17;;;;;;;5.70;4.35;;;26.20;60.80;;;;;;5071117;28;20028;-88
2023/08/28 08:08:45;;;;;;;5.55;3.58;;;26.10;60.60;;;;;;5067166;28;20024;-87
2023/08/28 08:11:11;;;;;;;4.35;3.28;;;26.90;59.60;;;;;;5071216;28;20069;-89
2023/08/28 08:13:37;;;;;;;4.60;4.05;;;27.30;58.60;;;;;;5067966;28;20040;-88
2023/08/28 08:16:04;;;;;;;3.88;3.50;;;27.70;57.40;;;;;;5070141;28;20538;-88
2023/08/28 08:18:30;;;;;;;3.83;3.15;;;27.70;57.10;;;;;;5071517;28;20120;-86
2023/08/28 08:20:56;;;;;;;3.53;3.03;;;26.70;58.50;;;;;;5072925;28;20104;-88
2023/08/28 08:23:22;;;;;;;2.92;2.63;;;27.00;58.40;;;;;;5072985;28;20021;-87
2023/08/28 08:25:51;;;;;;;2.97;2.33;;;26.20;59.20;;;;;;5071950;28;20419;-88
2023/08/28 08:28:17;;;;;;;2.75;2.20;;;26.20;59.40;;;;;;5068779;28;20513;-90
2023/08/28 08:30:46;;;;;;;3.13;2.22;;;27.10;58.60;;;;;;5071731;28;20021;-87
2023/08/28 08:33:11;;;;;;;3.15;2.72;;;27.70;57.40;;;;;;5070552;28;20459;-86
2023/08/28 08:35:37;;;;;;;4.72;3.20;;;27.10;56.70;;;;;;5070825;28;20027;-86
2023/08/28 08:38:03;;;;;;;2.42;2.20;;;26.30;58.40;;;;;;5070800;28;20040;-86
2023/08/28 08:40:29;;;;;;;2.72;2.05;;;26.40;59.20;;;;;;5070284;28;20032;-88
2023/08/28 08:42:55;;;;;;;3.00;2.30;;;27.20;58.10;;;;;;5073051;28;20029;-88
2023/08/28 08:45:28;;;;;;;2.88;2.10;;;27.40;56.50;;;;;;5071333;28;20032;-86
2023/08/28 08:47:57;;;;;;;1.85;1.75;;;26.90;57.80;;;;;;5070161;28;20119;-86
2023/08/28 08:50:24;;;;;;;2.30;1.80;;;26.60;58.00;;;;;;5070252;28;20016;-88
2023/08/28 08:52:50;;;;;;;3.08;1.83;;;25.10;59.60;;;;;;5069458;28;20123;-86
2023/08/28 08:55:24;;;;;;;1.85;1.70;;;24.00;62.00;;;;;;5067045;28;20108;-86
2023/08/28 08:57:53;;;;;;;2.70;1.40;;;23.40;64.10;;;;;;5067263;28;20068;-85
2023/08/28 09:00:19;;;;;;;2.22;1.50;;;22.90;65.60;;;;;;5070152;28;20029;-86
2023/08/28 09:02:47;;;;;;;2.63;1.40;;;23.30;66.20;;;;;;5064272;28;20029;-85
2023/08/28 09:05:14;;;;;;;1.75;1.20;;;23.40;65.60;;;;;;5061504;28;20028;-84
2023/08/28 09:07:43;;;;;;;1.95;1.25;;;23.30;65.50;;;;;;5067600;28;20025;-85
2023/08/28 09:10:10;;;;;;;2.67;1.67;;;23.30;65.70;;;;;;5066487;28;20507;-86
2023/08/28 09:12:35;;;;;;;2.63;1.40;;;23.20;65.50;;;;;;5066391;28;20029;-86
2023/08/28 09:15:02;;;;;;;1.92;1.40;;;23.10;65.60;;;;;;5056511;28;20035;-85
2023/08/28 09:17:31;;;;;;;2.15;1.20;;;22.80;65.80;;;;;;5065183;28;20512;-85
2023/08/28 09:20:13;;;;;;;1.55;0.98;;;22.70;66.20;;;;;;5068195;28;20025;-85
2023/08/28 09:22:43;;;;;;;1.85;1.00;;;22.60;66.30;;;;;;5088747;28;20119;-86
2023/08/28 09:25:09;;;;;;;1.70;1.00;;;22.50;66.30;;;;;;5064545;28;20028;-85
2023/08/28 09:27:44;;;;;;;0.73;0.60;;;22.40;66.20;;;;;;5061862;28;20036;-84
2023/08/28 09:32:46;;;;;;;1.13;0.63;;;22.40;66.40;;;;;;5072109;23;20054;-88
2023/08/28 09:35:13;;;;;;;1.08;0.80;;;22.40;65.30;;;;;;5011093;28;20496;-89
2023/08/28 09:37:39;;;;;;;2.45;0.80;;;22.40;65.90;;;;;;5010620;28;20033;-89
2023/08/28 09:40:05;;;;;;;1.00;0.70;;;22.30;65.10;;;;;;5012112;28;20113;-89
2023/08/28 09:53:00;;;;;;;;;;;;;;;;;;;;;
2023/08/28 10:01:36;;;;;;;1.65;0.98;;;21.90;65.80;;;;;;5009811;28;20037;-88
2023/08/28 10:08:02;;;;;;;;;;;;;;;;;;;;;
2023/08/28 10:13:50;;;;;;;1.30;0.82;;;21.90;66.30;;;;;;4986299;28;20185;-88
2023/08/28 10:20:32;;;;;;;;;;;;;;;;;;;;;
2023/08/28 10:22:59;;;;;;;1.17;0.77;;;21.90;63.90;;;;;;4916453;29;20069;-88
2023/08/28 10:25:27;;;;;;;1.10;0.70;;;22.00;64.20;;;;;;4984602;28;20034;-88
2023/08/28 10:28:22;;;;;;;1.20;0.80;;;22.10;63.90;;;;;;5009739;28;20812;-88
2023/08/28 10:31:54;;;;;;;1.23;0.88;;;22.30;63.70;;;;;;5011660;28;20029;-88
2023/08/28 10:34:28;;;;;;;1.27;0.80;;;22.50;63.10;;;;;;5018765;28;20034;-88
2023/08/28 10:37:27;;;;;;;0.77;0.60;;;22.60;61.50;;;;;;5028328;28;20042;-86
2023/08/28 10:41:11;;;;;;;;;;;;;;;;;;;;;
2023/08/28 10:43:39;;;;;;;0.93;0.70;;;22.80;61.20;;;;;;5005609;23;20116;-89
2023/08/28 10:46:06;;;;;;;0.68;0.68;;;22.80;60.60;;;;;;5039662;28;20037;-89
2023/08/28 10:48:38;;;;;;;0.60;0.60;;;22.80;60.80;;;;;;5041901;28;20025;-89
2023/08/28 10:51:03;;;;;;;2.13;0.90;;;22.90;60.80;;;;;;5039877;28;20033;-91
2023/08/28 10:53:29;;;;;;;0.85;0.80;;;22.90;60.20;;;;;;5038571;28;20039;-89
2023/08/28 10:55:56;;;;;;;1.75;0.80;;;22.90;60.50;;;;;;5034501;28;20235;-89
2023/08/28 10:58:22;;;;;;;1.33;0.75;;;22.90;60.70;;;;;;5034930;28;20029;-89
2023/08/28 11:00:48;;;;;;;1.40;0.85;;;22.90;60.40;;;;;;5039501;28;20075;-89
2023/08/28 11:03:18;;;;;;;1.02;0.80;;;22.90;60.40;;;;;;5037346;28;20025;-86
2023/08/28 11:05:44;;;;;;;0.98;0.70;;;22.90;60.50;;;;;;5040382;28;20033;-87
2023/08/28 11:08:13;;;;;;;0.90;0.55;;;23.10;60.50;;;;;;5036818;28;20029;-91
2023/08/28 11:10:44;;;;;;;1.17;0.80;;;23.30;60.50;;;;;;5035340;28;20009;-88
2023/08/28 11:13:18;;;;;;;0.70;0.70;;;23.50;59.70;;;;;;5039752;28;21201;-89
2023/08/28 11:15:45;;;;;;;1.55;0.80;;;23.70;59.30;;;;;;5036001;28;20090;-87
2023/08/28 11:18:26;;;;;;;1.60;0.80;;;23.80;58.90;;;;;;5035136;28;20505;-88
2023/08/28 11:20:52;;;;;;;1.17;0.80;;;23.90;58.40;;;;;;5042774;28;20094;-87
2023/08/28 11:23:34;;;;;;;2.10;0.85;;;23.80;58.10;;;;;;5041348;28;20059;-88
2023/08/28 11:26:27;;;;;;;2.95;0.80;;;23.70;58.00;;;;;;5037147;28;20352;-88
2023/08/28 11:28:53;;;;;;;1.20;0.80;;;23.50;58.30;;;;;;5027532;28;20088;-87
2023/08/28 11:31:19;;;;;;;1.27;0.77;;;23.40;58.90;;;;;;5032947;28;20761;-85
2023/08/28 11:33:51;;;;;;;0.75;0.63;;;23.30;59.40;;;;;;5037118;28;20382;-86
2023/08/28 11:36:21;;;;;;;1.15;0.80;;;23.30;59.80;;;;;;5036648;28;20090;-87
2023/08/28 11:38:48;;;;;;;1.55;0.70;;;23.40;59.70;;;;;;5038164;28;20043;-85
2023/08/28 11:41:15;;;;;;;1.60;0.70;;;23.40;59.80;;;;;;5041231;28;20193;-84
2023/08/28 11:43:42;;;;;;;1.05;0.70;;;23.40;59.90;;;;;;5035788;28;20052;-84
2023/08/28 11:46:10;;;;;;;1.10;0.60;;;23.60;59.70;;;;;;5029046;28;20079;-86
2023/08/28 11:48:37;;;;;;;0.70;0.68;;;23.70;58.50;;;;;;5040198;28;20024;-84
2023/08/28 11:51:05;;;;;;;1.05;0.60;;;23.80;57.70;;;;;;5037747;28;20027;-83
2023/08/28 11:53:37;;;;;;;0.73;0.50;;;23.80;56.10;;;;;;5033222;28;20068;-91
2023/08/28 11:56:05;;;;;;;0.50;0.50;;;23.90;55.90;;;;;;5035585;28;20025;-90
2023/08/28 11:58:33;;;;;;;0.75;0.60;;;24.00;56.00;;;;;;5038759;28;20065;-91
2023/08/28 12:01:07;;;;;;;0.98;0.60;;;24.00;55.60;;;;;;5033910;28;20017;-91
2023/08/28 12:03:34;;;;;;;0.60;0.60;;;24.00;55.60;;;;;;5037090;28;20025;-91
2023/08/28 12:06:07;;;;;;;1.75;0.70;;;24.10;55.90;;;;;;5037751;28;20029;-92
2023/08/28 12:08:35;;;;;;;0.95;0.68;;;24.20;55.50;;;;;;5043087;28;20025;-90
2023/08/28 12:11:03;;;;;;;1.08;0.70;;;24.20;55.10;;;;;;5036932;28;20020;-89
2023/08/28 12:13:30;;;;;;;0.70;0.55;;;24.20;55.10;;;;;;5037057;28;20021;-91
2023/08/28 12:16:19;;;;;;;1.08;0.63;;;24.20;55.10;;;;;;5037174;28;20092;-89
2023/08/28 12:18:49;;;;;;;1.98;0.60;;;24.20;54.90;;;;;;5043776;28;20060;-85
2023/08/28 12:21:16;;;;;;;0.70;0.60;;;24.20;55.00;;;;;;5038229;28;20028;-84
2023/08/28 12:23:45;;;;;;;0.80;0.65;;;24.20;55.10;;;;;;5035735;28;20035;-84
2023/08/28 12:26:11;;;;;;;1.13;0.70;;;24.30;54.90;;;;;;5034617;28;20026;-84
2023/08/28 12:28:37;;;;;;;0.98;0.60;;;24.30;54.70;;;;;;5033241;28;20099;-86
2023/08/28 12:31:02;;;;;;;0.70;0.60;;;24.20;54.60;;;;;;5038357;28;20037;-86
2023/08/28 12:33:28;;;;;;;1.05;0.60;;;24.20;54.80;;;;;;5040801;28;20022;-86
2023/08/28 12:35:54;;;;;;;1.10;0.70;;;24.30;54.90;;;;;;5052848;28;20020;-86
2023/08/28 12:38:19;;;;;;;1.95;0.90;;;24.30;55.30;;;;;;5043067;28;20048;-86
2023/08/28 12:40:50;;;;;;;0.95;0.73;;;24.30;55.10;;;;;;5034404;28;20029;-88
2023/08/28 12:43:16;;;;;;;1.17;0.70;;;24.50;55.00;;;;;;5033829;28;20029;-87
2023/08/28 12:45:44;;;;;;;2.20;0.70;;;24.50;54.30;;;;;;5042283;28;20510;-87
2023/08/28 12:48:09;;;;;;;1.45;0.60;;;24.60;54.50;;;;;;5036269;28;20029;-86
2023/08/28 12:50:36;;;;;;;0.85;0.60;;;24.70;54.40;;;;;;5063349;28;20135;-86
2023/08/28 12:53:04;;;;;;;0.65;0.50;;;24.80;53.90;;;;;;5038535;28;20025;-87
2023/08/28 12:55:30;;;;;;;1.38;0.60;;;24.90;53.60;;;;;;5040041;28;20025;-87
2023/08/28 12:57:55;;;;;;;1.35;0.70;;;24.80;53.20;;;;;;5038436;28;20066;-82
2023/08/28 13:00:21;;;;;;;1.42;0.60;;;24.80;53.30;;;;;;5042636;28;20029;-88
2023/08/28 13:02:46;;;;;;;0.77;0.57;;;25.10;53.40;;;;;;5044632;28;20056;-87
2023/08/28 13:05:12;;;;;;;1.27;0.73;;;25.30;52.90;;;;;;5040112;28;20399;-86
2023/08/28 13:07:38;;;;;;;0.80;0.55;;;25.40;52.20;;;;;;5038691;28;20128;-88
2023/08/28 13:10:04;;;;;;;0.80;0.70;;;25.30;52.20;;;;;;5048794;28;20486;-86
2023/08/28 13:12:30;;;;;;;1.13;0.80;;;25.20;52.10;;;;;;5037158;28;20104;-89
2023/08/28 13:14:56;;;;;;;0.90;0.60;;;25.10;51.90;;;;;;5036693;28;20466;-89
2023/08/28 13:17:21;;;;;;;1.52;0.60;;;25.00;52.30;;;;;;5034397;28;20048;-85
2023/08/28 13:19:47;;;;;;;0.63;0.60;;;25.00;52.60;;;;;;5039948;28;20036;-87
2023/08/28 13:22:12;;;;;;;1.00;0.60;;;24.70;52.40;;;;;;5032840;28;20667;-84
2023/08/28 13:24:39;;;;;;;1.05;0.50;;;24.60;53.20;;;;;;5035388;28;20025;-86
2023/08/28 13:27:05;;;;;;;1.13;0.60;;;24.60;53.40;;;;;;5036259;28;20021;-85
2023/08/28 13:29:30;;;;;;;1.05;0.60;;;24.60;53.50;;;;;;5040931;28;20582;-84
2023/08/28 13:31:56;;;;;;;0.40;0.40;;;24.50;53.70;;;;;;5039035;28;20054;-84
2023/08/28 13:34:21;;;;;;;0.98;0.60;;;24.40;54.20;;;;;;5037028;28;20032;-84
2023/08/28 13:36:47;;;;;;;0.68;0.52;;;24.30;54.50;;;;;;5035102;28;20091;-92
2023/08/28 13:39:13;;;;;;;1.23;0.68;;;24.20;54.60;;;;;;5037033;28;20106;-88
2023/08/28 13:41:40;;;;;;;1.27;0.50;;;24.20;54.90;;;;;;5039374;28;20078;-90
2023/08/28 13:44:05;;;;;;;2.25;0.60;;;24.10;55.00;;;;;;5034840;28;20083;-89
2023/08/28 13:46:31;;;;;;;1.00;0.68;;;24.00;55.20;;;;;;5034159;28;20108;-88